To NAV CANADA Home Page Login to a new session Search on AWWS site Disclaimer Vers la page française équivalente Tips FAQ What's new on the site To the Forecasts and Observations / NOTAM section To "File a Flight Plan" website Publications and other links Update of the User's profile FIC Telephone Numbers My Weather Data Folder Route Weather Data Regional Weather Data Local Weather Data To the Forecasts and Observations / NOTAM section
Request Generated 11/13/2018 at 18:31:44 UTC . Weather information available at that time is displayed.

METAR/TAF

KENORA/ON    

METAR CYQK 131800Z 31005KT 270V340 20SM FEW025 BKN038 M11/M17 A3031 RMK SC2SC5 SLP303=
SPECI CYQK 131743Z 27006KT 20SM SCT025 BKN038 M12/M17 A3032 RMK SC3SC4 SLP305=
METAR CYQK 131700Z 29006KT 20SM -SN FEW012 BKN037 M12/M17 A3033 RMK SC2SC5 SLP308=
METAR CYQK 131600Z 26006KT 15SM -SN FEW012 OVC037 M13/M15 A3032 RMK SC1SC7 -SN INTMT SLP305=

TAF CYQK 131338Z 1314/1402 30006KT P6SM FEW012 SCT050 TEMPO 1314/1318
BKN050
FM131800 26008KT P6SM BKN030 TEMPO 1320/1324 6SM -SN BKN020
BECMG 1400/1402 VRB03KT
RMK NXT FCST BY 132000Z=
Your time UTC time
Weather data provided by Environment Canada and NAV CANADA